Nearby METAR Reports

CWGD - Goderich (autob), Ontario, Canada
Distance from station: SW 47km
Updated: 03/31/2020 9:00pm

 Wind from E
Wind: E 15 km/h
Temperature: 7°C
Wind Chill: 4°C
Dew Point: 4°C
Humidity: 81%
2020/04/01 01:00 CWGD 010100Z AUTO 09008KT 07/04 RMK AO1 SLP168 T00670037 53009
CWLS - Mount Forest(Mar, Ontario, Canada
Distance from station: ESE 53km
Updated: 03/31/2020 9:00pm

 Wind from ENE
Wind: ENE 17 km/h
Temperature: 4°C
Wind Chill: 0°C
Dew Point: 3°C
Humidity: 93%
2020/04/01 01:00 CWLS 010100Z AUTO 07009KT 04/03 RMK AO1 SLP174 T00380029 53009
 
CYVV - Wiarton Air, Ontario, Canada
Distance from station: NNE 75km
Updated: 03/31/2020 9:00pm
Mostly cloudy
Mostly cloudy
 Wind from E
Wind: E 7 km/h
Temperature: 2°C
Wind Chill: 0°C
Dew Point: 1°C
Humidity: 93%
Barometer: 1016.6 hPa
Clouds: Mostly cloudy
Visibility: 24 km
Cloud details: Few Clouds 914 m
Mostly cloudy 2134 m
2020/04/01 01:00 CYVV 010100Z 08004KT 15SM FEW030 BKN070 02/01 A3002 RMK SC2AC3 SLP174
CZEL - Elora Rcs, Ontario, Canada
Distance from station: ESE 93km
Updated: 03/31/2020 9:00pm

 Wind from E
Wind: E 7 km/h
Temperature: 3°C
Wind Chill: 1°C
Dew Point: 3°C
Humidity: 100%
2020/04/01 01:00 CZEL 010100Z AUTO 10004KT 03/03 RMK AO1 2PAST HR 1011 SLP174 P0001 T00330027 50002
 
CWCO - Collingwood (aut, Ontario, Canada
Distance from station: ENE 104km
Updated: 03/31/2020 9:00pm

 Wind from N
Wind: N 7 km/h
Temperature: 4°C
Wind Chill: 2°C
Dew Point: 3°C
Humidity: 93%
2020/04/01 01:00 CWCO 010100Z AUTO 35004KT 04/03 RMK AO1 SLP176 T00400029 51012
CYKF - Waterloo Well, Ontario, Canada
Distance from station: SE 107km
Updated: 03/31/2020 9:21pm
Mist, Overcast
Mist, Overcast
 Wind from E
Wind: E 19 km/h
Temperature: 4°C
Wind Chill: 0°C
Dew Point: 3°C
Humidity: 93%
Barometer: 1015.2 hPa
Summary: Mist
Clouds: Overcast
Visibility: 10 km
Cloud details: Overcast 183 m
2020/04/01 01:21 CYKF 010121Z AUTO 08010KT 6SM BR OVC006 04/03 A2998 RMK SLP162
 
KP58 - Port Hope, Michigan, USA
Distance from station: W 114km
Updated: 03/31/2020 8:51pm

 Wind from NNE
Wind: NNE 24 km/h
Temperature: 4°C
Wind Chill: -1°C
Dew Point: 2°C
Humidity: 87%
Barometer: 1015.6 hPa
2020/04/01 00:51 KP58 010051Z AUTO 03013KT 04/02 A2999 RMK AO1 SLP161 T00390017
CYBN - Borden, Ontario, Canada
Distance from station: E 118km
Updated: 03/30/2020 9:00pm
NOT Current

 Wind from WNW
Wind: WNW 7 km/h
Temperature: 4°C
Wind Chill: 2°C
Dew Point: 3°C
Humidity: 93%
Barometer: 1014.6 hPa
2020/03/31 01:00 CYBN 310100Z AUTO 29004KT 270V340 04/03 A2996 RMK SLP153
 
CYXU - London Airport, Ontario, Canada
Distance from station: S 123km
Updated: 03/31/2020 9:00pm
Overcast
Overcast
 Wind from ENE
Wind: ENE 24 km/h
Temperature: 4°C
Wind Chill: -1°C
Dew Point: 3°C
Humidity: 93%
Barometer: 1014.6 hPa
Clouds: Overcast
Visibility: 24 km
Cloud details: Overcast 305 m
2020/04/01 01:00 CYXU 010100Z 07013KT 15SM OVC010 04/03 A2996 RMK SC8 SLP154
CXET - Egbert Cs, Ontario, Canada
Distance from station: E 128km
Updated: 03/31/2020 9:00pm

 Wind from ENE
Wind: ENE 11 km/h
Temperature: 4°C
Wind Chill: 1°C
Dew Point: 1°C
Humidity: 81%
2020/04/01 01:00 CXET 010100Z AUTO 07006KT 04/01 RMK AO1 SLP180 T00440009 53012
 
CWMZ - Western Isl (map, Ontario, Canada
Distance from station: NE 129km
Updated: 03/31/2020 8:00pm
NOT Current

 Wind from E
Wind: E 26 km/h
Temperature: 4°C
Wind Chill: -1°C
Dew Point: 1°C
Humidity: 81%
2020/04/01 00:00 CWMZ 010000Z AUTO 09014KT 04/01 RMK AO1 SLP169 T00440008 53003
KBAX - Bad Axe, Michigan, USA
Distance from station: WSW 133km
Updated: 03/31/2020 9:16pm
Overcast
Overcast
 Wind from NNE
Wind: NNE 9 km/h
Temperature: 4°C
Wind Chill: 2°C
Dew Point: 4°C
Humidity: 100%
Barometer: 1015.6 hPa
Clouds: Overcast
Visibility: 16 km
Cloud details: Overcast 183 m
2020/04/01 01:16 KBAX 010116Z AUTO 03005KT 10SM OVC006 04/04 A2999 RMK AO2 T00400036
 
CWWX - Cove Island (map, Ontario, Canada
Distance from station: NNW 137km
Updated: 03/31/2020 9:00pm

 Wind from ENE
Wind: ENE 22 km/h
Temperature: 3°C
Wind Chill: -2°C
Dew Point: 2°C
Humidity: 93%
2020/04/01 01:00 CWWX 010100Z AUTO 07012KT 03/02 RMK AO1 SLP176 T00290015 53004
CYZR - Sarnia Airport, Ontario, Canada
Distance from station: SSW 144km
Updated: 03/31/2020 9:11pm
Overcast
Overcast
 Wind from NNE
Wind: NNE 17 km/h
Temperature: 3°C
Wind Chill: -1°C
Dew Point: 3°C
Humidity: 100%
Barometer: 1014.6 hPa
Clouds: Overcast
Visibility: 14 km
Cloud details: Few Clouds 152 m
Mostly cloudy 518 m
Mostly cloudy 1219 m
Overcast 2134 m
2020/04/01 01:11 CYZR 010111Z AUTO 02009KT 9SM FEW005 BKN017 BKN040 OVC070 03/03 A2996 RMK SLP152
 
CXHM - Hamilton Rbg Cs, Ontario, Canada
Distance from station: SE 150km
Updated: 03/31/2020 9:00pm

 Wind from ENE
Wind: ENE 9 km/h
2020/04/01 01:00 CXHM 010100Z AUTO 06005KT RMK AO1 53006
CYYZ - Toronto/Pearson, Ontario, Canada
Distance from station: ESE 150km
Updated: 03/31/2020 9:00pm
Overcast
Overcast
 Wind from E
Wind: E 20 km/h, Gust: 31 km/h
Temperature: 5°C
Wind Chill: 1°C
Dew Point: 3°C
Humidity: 87%
Barometer: 1016.3 hPa
Clouds: Overcast
Visibility: 24 km
Cloud details: Few Clouds 427 m
Overcast 610 m
2020/04/01 01:00 CYYZ 010100Z 09011G17KT 15SM FEW014 OVC020 05/03 A3001 RMK SF1SC7 SLP168
 
CXBI - Barrie-Oro, Ontario, Canada
Distance from station: ENE 151km
Updated: 03/31/2020 9:00pm

 Wind from NE
Wind: NE 11 km/h
Temperature: 4°C
Wind Chill: 1°C
Dew Point: 1°C
Humidity: 81%
2020/04/01 01:00 CXBI 010100Z AUTO 05006KT 04/01 RMK AO1 SLP179 T00350007 53011
CXDI - Delhi Cs (aut), Ontario, Canada
Distance from station: SSE 154km
Updated: 03/31/2020 9:00pm

 Wind from NNE
Wind: NNE 6 km/h
Temperature: 4°C
Dew Point: 3°C
Humidity: 93%
2020/04/01 01:00 CXDI 010100Z AUTO 03003KT 04/03 RMK AO1 2PAST HR 1003 SLP157 P0001 T00400033 50002
 
CWWB - Burlington Piers, Ontario, Canada
Distance from station: SE 157km
Updated: 03/31/2020 9:00pm

 Wind from NNE
Wind: NNE 15 km/h
Temperature: 4°C
Wind Chill: 1°C
Dew Point: 3°C
Humidity: 93%
2020/04/01 01:00 CWWB 010100Z AUTO 02008KT 04/03 RMK AO1 SLP163 T00410033 53008
CYHM - Hamilton Airport, Ontario, Canada
Distance from station: SE 157km
Updated: 03/31/2020 9:00pm
Light rain, Mist, Overcast
Light rain, Mist, Overcast
 Wind from NE
Wind: NE 31 km/h, Gust: 43 km/h
Temperature: 3°C
Wind Chill: -3°C
Dew Point: 3°C
Humidity: 100%
Barometer: 1014.9 hPa
Summary: Light rain, Mist
Clouds: Overcast
Visibility: 10 km
Cloud details: Overcast 183 m
2020/04/01 01:00 CYHM 010100Z 04017G23KT 6SM -RA BR OVC006 03/03 A2997 RMK SC8 SLP158